Time;durP1;ratioP1;P1;durP2;ratioP2;P2;SDS_P1;SDS_P2;PMS_P1;PMS_P2;Temp;Humidity;BMP_temperature;BMP_pressure;BME280_temperature;BME280_humidity;BME280_pressure;Samples;Min_cycle;Max_cycle;Signal;HPM_P1;HPM_P2
2022/08/06 00:01:38;;;;;;;7.07;2.50;;;16.70;99.90;;;;;;5042514;28;20048;-73
2022/08/06 00:04:03;;;;;;;8.75;2.35;;;16.60;99.90;;;;;;5040541;28;20797;-72
2022/08/06 00:06:29;;;;;;;5.57;2.50;;;16.60;99.90;;;;;;5038748;28;20087;-72
2022/08/06 00:08:55;;;;;;;7.90;2.13;;;16.50;99.90;;;;;;5040614;28;20079;-73
2022/08/06 00:11:21;;;;;;;5.97;2.60;;;16.50;99.90;;;;;;5043513;28;20040;-72
2022/08/06 00:13:46;;;;;;;7.07;2.65;;;16.50;99.90;;;;;;5041089;28;20021;-73
2022/08/06 00:16:12;;;;;;;5.07;2.00;;;16.50;99.90;;;;;;5042400;28;20039;-71
2022/08/06 00:18:37;;;;;;;9.75;2.83;;;16.40;99.90;;;;;;5045852;28;20053;-73
2022/08/06 00:21:03;;;;;;;3.67;2.22;;;16.40;99.90;;;;;;5043294;28;20037;-72
2022/08/06 00:23:29;;;;;;;7.35;2.55;;;16.40;99.90;;;;;;5043629;28;20144;-72
2022/08/06 00:25:54;;;;;;;6.22;2.97;;;16.40;99.90;;;;;;5045181;28;20087;-73
2022/08/06 00:28:25;;;;;;;6.63;2.50;;;16.30;99.90;;;;;;5040658;28;20032;-72
2022/08/06 00:30:51;;;;;;;5.28;2.78;;;16.30;99.90;;;;;;5049694;28;20033;-73
2022/08/06 00:33:17;;;;;;;6.05;2.67;;;16.30;99.90;;;;;;5047290;28;20021;-73
2022/08/06 00:35:43;;;;;;;5.80;2.70;;;16.20;99.90;;;;;;5042277;28;20040;-72
2022/08/06 00:38:09;;;;;;;5.68;2.67;;;16.20;99.90;;;;;;5041988;28;20075;-72
2022/08/06 00:40:35;;;;;;;4.90;2.58;;;16.20;99.90;;;;;;5041511;28;20054;-72
2022/08/06 00:43:03;;;;;;;6.63;2.53;;;16.20;99.90;;;;;;5041453;28;20060;-72
2022/08/06 00:45:33;;;;;;;7.05;2.53;;;16.10;99.90;;;;;;5043437;28;20481;-73
2022/08/06 00:48:00;;;;;;;6.72;3.05;;;16.10;99.90;;;;;;5042319;28;20406;-73
2022/08/06 00:50:26;;;;;;;7.65;2.92;;;16.10;99.90;;;;;;5049084;28;20489;-72
2022/08/06 00:52:52;;;;;;;6.47;2.58;;;16.00;99.90;;;;;;5057606;28;20029;-72
2022/08/06 00:55:17;;;;;;;9.35;3.05;;;16.00;99.90;;;;;;5045067;28;20096;-72
2022/08/06 00:57:43;;;;;;;9.20;3.15;;;16.00;99.90;;;;;;5039469;28;20105;-72
2022/08/06 01:00:09;;;;;;;5.88;2.92;;;15.90;99.90;;;;;;5041112;28;20072;-72
2022/08/06 01:02:35;;;;;;;4.40;3.00;;;15.90;99.90;;;;;;5042762;28;20025;-72
2022/08/06 01:05:01;;;;;;;6.65;3.90;;;15.90;99.90;;;;;;5042046;28;20026;-72
2022/08/06 01:07:27;;;;;;;4.28;2.78;;;15.90;99.90;;;;;;5044207;28;20405;-72
2022/08/06 01:09:53;;;;;;;6.82;2.90;;;15.90;99.90;;;;;;5040656;28;20111;-71
2022/08/06 01:12:18;;;;;;;10.27;3.15;;;15.80;99.90;;;;;;5042648;28;20104;-72
2022/08/06 01:14:44;;;;;;;5.35;2.88;;;15.80;99.90;;;;;;5041514;28;20040;-73
2022/08/06 01:17:42;;;;;;;10.10;3.33;;;15.80;99.90;;;;;;5039371;28;20033;-72
2022/08/06 01:20:36;;;;;;;5.10;3.13;;;15.70;99.90;;;;;;5037502;28;20048;-72
2022/08/06 01:23:07;;;;;;;5.25;2.58;;;15.70;99.90;;;;;;5038194;28;20025;-72
2022/08/06 01:26:27;;;;;;;5.85;3.25;;;15.80;99.90;;;;;;5038953;28;20036;-72
2022/08/06 01:29:05;;;;;;;5.93;2.92;;;15.70;99.90;;;;;;5022729;28;20139;-72
2022/08/06 01:31:55;;;;;;;7.05;3.47;;;15.70;99.90;;;;;;5042094;28;20041;-72
2022/08/06 01:34:31;;;;;;;6.43;3.15;;;15.60;99.90;;;;;;5040797;28;20031;-72
2022/08/06 01:37:09;;;;;;;8.88;3.13;;;15.60;99.90;;;;;;5046842;28;20017;-71
2022/08/06 01:39:36;;;;;;;6.05;3.13;;;15.60;99.90;;;;;;5046110;28;20031;-72
2022/08/06 01:42:04;;;;;;;4.07;2.90;;;15.60;99.90;;;;;;5047900;28;20024;-72
2022/08/06 01:44:34;;;;;;;5.43;3.33;;;15.60;99.90;;;;;;5047857;28;20107;-71
2022/08/06 01:47:05;;;;;;;8.63;3.47;;;15.50;99.90;;;;;;5044573;28;20067;-72
2022/08/06 01:49:36;;;;;;;7.65;3.88;;;15.50;99.90;;;;;;5044929;28;20033;-72
2022/08/06 01:52:02;;;;;;;5.03;3.72;;;15.50;99.90;;;;;;5046389;28;20031;-72
2022/08/06 01:54:30;;;;;;;6.05;3.28;;;15.40;99.90;;;;;;5046938;28;20029;-72
2022/08/06 01:57:00;;;;;;;4.97;2.83;;;15.30;99.90;;;;;;5046413;28;20021;-72
2022/08/06 01:59:32;;;;;;;8.35;3.78;;;15.30;99.90;;;;;;5042280;28;20053;-72
2022/08/06 02:02:01;;;;;;;6.43;3.60;;;15.40;99.90;;;;;;5043703;28;20021;-72
2022/08/06 02:04:30;;;;;;;6.30;3.38;;;15.30;99.90;;;;;;5042950;28;20071;-71
2022/08/06 02:06:57;;;;;;;6.82;3.05;;;15.30;99.90;;;;;;5052384;28;20049;-72
2022/08/06 02:09:24;;;;;;;4.93;3.13;;;15.30;99.90;;;;;;5046791;28;20025;-72
2022/08/06 02:11:56;;;;;;;7.93;3.70;;;15.20;99.90;;;;;;5044569;28;20500;-72
2022/08/06 02:14:24;;;;;;;7.32;3.33;;;15.20;99.90;;;;;;5049272;28;20086;-72
2022/08/06 02:16:53;;;;;;;9.15;3.22;;;15.20;99.90;;;;;;5040259;28;20032;-72
2022/08/06 02:19:20;;;;;;;4.18;3.20;;;15.20;99.90;;;;;;5042496;28;20029;-72
2022/08/06 02:21:48;;;;;;;9.43;3.50;;;15.20;99.90;;;;;;5039480;28;20486;-72
2022/08/06 02:24:14;;;;;;;8.30;3.08;;;15.10;99.90;;;;;;5042881;28;20056;-72
2022/08/06 02:26:43;;;;;;;6.05;3.15;;;15.10;99.90;;;;;;5039383;28;20068;-72
2022/08/06 02:29:13;;;;;;;8.45;3.30;;;15.00;99.90;;;;;;5046549;28;20025;-72
2022/08/06 02:31:39;;;;;;;5.88;3.10;;;15.00;99.90;;;;;;5044919;28;20037;-71
2022/08/06 02:34:05;;;;;;;8.10;3.15;;;15.00;99.90;;;;;;5044319;28;20500;-72
2022/08/06 02:36:42;;;;;;;7.65;3.45;;;15.00;99.90;;;;;;5038502;28;20025;-72
2022/08/06 02:39:13;;;;;;;7.03;3.47;;;15.00;99.90;;;;;;5044108;28;20032;-72
2022/08/06 02:41:53;;;;;;;5.50;3.95;;;15.00;99.90;;;;;;5050649;28;20029;-72
2022/08/06 02:44:50;;;;;;;6.13;3.70;;;14.90;99.90;;;;;;5043411;28;20255;-72
2022/08/06 02:47:36;;;;;;;7.80;3.53;;;14.90;99.90;;;;;;5041855;28;20045;-72
2022/08/06 02:50:05;;;;;;;5.00;3.17;;;14.80;99.90;;;;;;5045404;28;20036;-71
2022/08/06 02:52:48;;;;;;;3.20;2.92;;;14.80;99.90;;;;;;5038290;28;20021;-72
2022/08/06 02:55:19;;;;;;;5.95;3.30;;;14.80;99.90;;;;;;5041253;28;20012;-72
2022/08/06 02:57:52;;;;;;;7.72;3.30;;;14.70;99.90;;;;;;5051419;28;20035;-72
2022/08/06 03:00:18;;;;;;;7.75;4.18;;;14.70;99.90;;;;;;5042531;28;20038;-72
2022/08/06 03:02:47;;;;;;;5.80;3.92;;;14.70;99.90;;;;;;5046826;28;20017;-72
2022/08/06 03:05:19;;;;;;;7.90;4.35;;;14.70;99.90;;;;;;5051330;28;20043;-72
2022/08/06 03:07:48;;;;;;;4.35;3.67;;;14.70;99.90;;;;;;5049143;28;21975;-72
2022/08/06 03:10:17;;;;;;;11.60;4.35;;;14.70;99.90;;;;;;5043519;28;20586;-72
2022/08/06 03:12:43;;;;;;;8.45;3.90;;;14.70;99.90;;;;;;5044123;28;20023;-72
2022/08/06 03:15:10;;;;;;;9.55;4.70;;;14.70;99.90;;;;;;5041790;28;20095;-72
2022/08/06 03:17:37;;;;;;;8.32;4.30;;;14.70;99.90;;;;;;5041734;28;20470;-72
2022/08/06 03:20:05;;;;;;;6.43;4.65;;;14.60;99.90;;;;;;5046549;28;20503;-71
2022/08/06 03:22:32;;;;;;;12.40;4.78;;;14.60;99.90;;;;;;5044292;28;20031;-72
2022/08/06 03:25:00;;;;;;;7.57;4.43;;;14.60;99.90;;;;;;5044583;28;20071;-71
2022/08/06 03:27:26;;;;;;;8.05;4.13;;;14.50;99.90;;;;;;5044604;28;20055;-71
2022/08/06 03:29:54;;;;;;;6.72;4.22;;;14.50;99.90;;;;;;5046743;28;20056;-72
2022/08/06 03:32:20;;;;;;;7.05;4.20;;;14.50;99.90;;;;;;5046103;28;20029;-71
2022/08/06 03:34:47;;;;;;;8.80;4.50;;;14.50;99.90;;;;;;5049187;28;20482;-72
2022/08/06 03:37:16;;;;;;;5.55;4.18;;;14.50;99.90;;;;;;5038483;28;20053;-72
2022/08/06 03:39:43;;;;;;;6.07;3.83;;;14.50;99.90;;;;;;5045794;28;20058;-72
2022/08/06 03:42:09;;;;;;;6.68;3.92;;;14.50;99.90;;;;;;5043999;28;20448;-72
2022/08/06 03:44:36;;;;;;;6.50;4.25;;;14.40;99.90;;;;;;5044314;28;20032;-71
2022/08/06 03:47:23;;;;;;;7.85;4.50;;;14.50;99.90;;;;;;5043375;28;20120;-71
2022/08/06 03:49:59;;;;;;;7.50;4.70;;;14.40;99.90;;;;;;5044553;28;20140;-72
2022/08/06 03:52:29;;;;;;;6.45;4.07;;;14.40;99.90;;;;;;5044957;28;20108;-72
2022/08/06 03:55:01;;;;;;;8.05;5.03;;;14.40;99.90;;;;;;5039743;28;20022;-72
2022/08/06 03:57:34;;;;;;;6.78;4.22;;;14.40;99.90;;;;;;5041566;28;20033;-71
2022/08/06 04:00:01;;;;;;;5.93;4.40;;;14.30;99.90;;;;;;5037085;28;20085;-72
2022/08/06 04:02:38;;;;;;;8.25;4.03;;;14.30;99.90;;;;;;5040494;28;20478;-72
2022/08/06 04:05:05;;;;;;;6.97;3.60;;;14.30;99.90;;;;;;5048823;28;20025;-71
2022/08/06 04:07:32;;;;;;;6.18;3.95;;;14.30;99.90;;;;;;5037985;28;20398;-72
2022/08/06 04:09:59;;;;;;;8.60;4.20;;;14.30;99.90;;;;;;5039920;28;20512;-72
2022/08/06 04:12:26;;;;;;;5.25;4.28;;;14.20;99.90;;;;;;5045131;28;20108;-71
2022/08/06 04:14:53;;;;;;;6.65;3.90;;;14.20;99.90;;;;;;5037592;28;20050;-71
2022/08/06 04:17:20;;;;;;;6.18;3.63;;;14.20;99.90;;;;;;5043484;28;20025;-71
2022/08/06 04:19:48;;;;;;;6.72;4.38;;;14.20;99.90;;;;;;5048880;28;20107;-71
2022/08/06 04:22:13;;;;;;;7.88;4.25;;;14.20;99.90;;;;;;5044545;28;20139;-71
2022/08/06 04:24:39;;;;;;;7.68;3.95;;;14.20;99.90;;;;;;5040905;28;20047;-72
2022/08/06 04:27:08;;;;;;;7.07;4.20;;;14.20;99.90;;;;;;5045678;28;20040;-72
2022/08/06 04:29:36;;;;;;;13.80;4.28;;;14.10;99.90;;;;;;5039399;28;20021;-72
2022/08/06 04:32:04;;;;;;;5.55;3.60;;;14.10;99.90;;;;;;5043962;28;20032;-72
2022/08/06 04:34:30;;;;;;;8.02;3.58;;;14.10;99.90;;;;;;5041752;28;20064;-72
2022/08/06 04:36:58;;;;;;;4.97;3.72;;;14.10;99.90;;;;;;5044860;28;20076;-72
2022/08/06 04:39:25;;;;;;;6.18;3.95;;;14.10;99.90;;;;;;5043386;28;20033;-71
2022/08/06 04:41:52;;;;;;;8.68;4.60;;;14.00;99.90;;;;;;5042816;28;20017;-72
2022/08/06 04:44:18;;;;;;;6.00;4.35;;;14.10;99.90;;;;;;5039164;28;20050;-71
2022/08/06 04:46:48;;;;;;;6.60;4.40;;;14.00;99.90;;;;;;5042778;28;20040;-72
2022/08/06 04:49:15;;;;;;;6.55;4.72;;;14.10;99.90;;;;;;5040463;28;20036;-72
2022/08/06 04:51:44;;;;;;;7.13;4.45;;;14.10;99.90;;;;;;5041908;28;20033;-73
2022/08/06 04:54:10;;;;;;;5.13;4.15;;;14.10;99.90;;;;;;5040885;28;20032;-72
2022/08/06 04:56:35;;;;;;;9.32;4.50;;;14.10;99.90;;;;;;5044728;28;20036;-72
2022/08/06 04:59:01;;;;;;;10.30;4.93;;;14.00;99.90;;;;;;5044901;28;20036;-72
2022/08/06 05:01:26;;;;;;;8.15;4.85;;;14.10;99.90;;;;;;5042421;28;20033;-72
2022/08/06 05:03:52;;;;;;;5.38;4.22;;;14.00;99.90;;;;;;5048417;28;20088;-72
2022/08/06 05:06:42;;;;;;;6.07;5.13;;;14.00;99.90;;;;;;5047234;28;20114;-72
2022/08/06 05:09:13;;;;;;;8.32;4.85;;;14.10;99.90;;;;;;5038613;28;20029;-73
2022/08/06 05:11:47;;;;;;;5.47;4.15;;;14.00;99.90;;;;;;5042090;28;20033;-72
2022/08/06 05:14:24;;;;;;;7.78;5.07;;;14.10;99.90;;;;;;5048042;28;20033;-72
2022/08/06 05:16:50;;;;;;;7.20;4.88;;;14.10;99.90;;;;;;5037236;28;20032;-72
2022/08/06 05:19:45;;;;;;;9.82;5.00;;;14.10;99.90;;;;;;5040182;28;20026;-72
2022/08/06 05:22:15;;;;;;;11.73;5.65;;;14.10;99.90;;;;;;5028217;28;20041;-72
2022/08/06 05:24:41;;;;;;;10.68;5.07;;;14.10;99.90;;;;;;5049146;28;20032;-72
2022/08/06 05:27:09;;;;;;;8.70;5.68;;;14.10;99.90;;;;;;5041376;28;20041;-72
2022/08/06 05:29:34;;;;;;;11.57;5.25;;;14.10;99.90;;;;;;5038204;28;20034;-72
2022/08/06 05:32:01;;;;;;;8.95;5.63;;;14.10;99.90;;;;;;5034959;28;20044;-72
2022/08/06 05:34:27;;;;;;;9.93;4.97;;;14.10;99.90;;;;;;5042919;28;20016;-72
2022/08/06 05:36:52;;;;;;;10.98;5.53;;;14.20;99.90;;;;;;5041651;28;20529;-72
2022/08/06 05:39:19;;;;;;;9.88;4.78;;;14.20;99.90;;;;;;5043822;28;20053;-72
2022/08/06 05:41:45;;;;;;;7.38;5.13;;;14.20;99.90;;;;;;5046442;28;20028;-71
2022/08/06 05:44:11;;;;;;;7.93;6.07;;;14.30;99.90;;;;;;5040534;28;20034;-72
2022/08/06 05:46:44;;;;;;;8.73;5.40;;;14.30;99.90;;;;;;5042220;28;20371;-72
2022/08/06 05:49:19;;;;;;;7.85;5.85;;;14.30;99.90;;;;;;5042559;28;20032;-72
2022/08/06 05:52:01;;;;;;;5.68;4.90;;;14.40;99.90;;;;;;5044643;28;20393;-72
2022/08/06 05:54:36;;;;;;;8.23;5.53;;;14.40;99.90;;;;;;5042258;28;20032;-72
2022/08/06 05:57:25;;;;;;;8.02;5.22;;;14.50;99.90;;;;;;5038227;28;20545;-71
2022/08/06 05:59:58;;;;;;;9.52;6.00;;;14.50;99.90;;;;;;5044716;28;20033;-73
2022/08/06 06:02:25;;;;;;;11.02;6.07;;;14.60;99.90;;;;;;5042943;28;20513;-72
2022/08/06 06:04:51;;;;;;;11.38;5.45;;;14.60;99.90;;;;;;5041526;28;20049;-70
2022/08/06 06:07:17;;;;;;;7.15;5.57;;;14.60;99.90;;;;;;5041447;28;20025;-72
2022/08/06 06:09:44;;;;;;;10.90;6.10;;;14.60;99.90;;;;;;5043116;28;20076;-72
2022/08/06 06:12:11;;;;;;;11.27;7.10;;;14.70;99.90;;;;;;5043113;28;20037;-72
2022/08/06 06:14:40;;;;;;;11.27;6.82;;;14.70;99.90;;;;;;5041448;28;20021;-72
2022/08/06 06:17:14;;;;;;;12.32;6.40;;;14.70;99.90;;;;;;5041584;28;20033;-72
2022/08/06 06:19:49;;;;;;;14.13;6.00;;;14.80;99.90;;;;;;5039709;28;20027;-72
2022/08/06 06:22:18;;;;;;;11.38;6.70;;;14.80;99.90;;;;;;5041507;28;20493;-71
2022/08/06 06:24:58;;;;;;;10.68;6.43;;;14.80;99.90;;;;;;5041761;28;20025;-71
2022/08/06 06:27:38;;;;;;;11.15;7.05;;;14.90;99.90;;;;;;5046223;28;20037;-72
2022/08/06 06:30:07;;;;;;;10.48;5.88;;;14.90;99.90;;;;;;5042138;28;20040;-72
2022/08/06 06:33:07;;;;;;;6.97;5.75;;;15.00;99.90;;;;;;5043533;28;20025;-72
2022/08/06 06:35:33;;;;;;;13.95;5.65;;;15.00;99.90;;;;;;5040292;28;20025;-72
2022/08/06 06:38:13;;;;;;;11.75;5.18;;;15.10;99.90;;;;;;5046199;28;20033;-72
2022/08/06 06:41:18;;;;;;;13.35;5.22;;;15.20;99.90;;;;;;5041989;28;20075;-72
2022/08/06 06:43:46;;;;;;;7.60;5.15;;;15.20;99.90;;;;;;5043671;28;20068;-72
2022/08/06 06:46:21;;;;;;;9.10;4.97;;;15.30;99.90;;;;;;5042081;28;20037;-72
2022/08/06 06:48:57;;;;;;;8.98;4.85;;;15.40;99.90;;;;;;5046612;28;20128;-71
2022/08/06 06:51:40;;;;;;;11.68;4.72;;;15.40;99.90;;;;;;5043550;28;20028;-72
2022/08/06 06:54:06;;;;;;;9.73;4.38;;;15.50;99.90;;;;;;5043039;28;20032;-72
2022/08/06 06:56:42;;;;;;;12.40;4.40;;;15.50;99.90;;;;;;5046139;28;20021;-72
2022/08/06 06:59:14;;;;;;;11.63;4.45;;;15.70;99.90;;;;;;5042070;28;20044;-72
2022/08/06 07:01:41;;;;;;;8.45;3.55;;;15.70;99.90;;;;;;5040390;28;20053;-70
2022/08/06 07:04:11;;;;;;;9.98;3.88;;;15.70;99.90;;;;;;5036667;28;20020;-72
2022/08/06 07:06:38;;;;;;;4.70;2.90;;;15.80;99.90;;;;;;5043526;28;20041;-72
2022/08/06 07:09:04;;;;;;;9.55;3.17;;;15.90;99.90;;;;;;5049151;28;20029;-72
2022/08/06 07:11:31;;;;;;;7.38;2.78;;;16.10;99.90;;;;;;5040082;28;20041;-72
2022/08/06 07:13:58;;;;;;;10.18;2.90;;;16.10;99.90;;;;;;5044427;28;20386;-72
2022/08/06 07:16:26;;;;;;;5.90;2.70;;;16.20;99.90;;;;;;5044823;28;20074;-72
2022/08/06 07:18:53;;;;;;;7.25;2.80;;;16.30;99.90;;;;;;5041944;28;20079;-71
2022/08/06 07:21:20;;;;;;;5.13;2.10;;;16.40;99.90;;;;;;5043864;28;20486;-73
2022/08/06 07:23:51;;;;;;;4.45;2.30;;;16.50;99.90;;;;;;5044622;28;20060;-73
2022/08/06 07:26:19;;;;;;;5.43;2.55;;;16.60;99.90;;;;;;5046495;28;20033;-71
2022/08/06 07:28:46;;;;;;;6.18;2.22;;;16.70;99.90;;;;;;5046009;28;20021;-71
2022/08/06 07:31:12;;;;;;;3.55;1.50;;;16.90;99.90;;;;;;5039487;28;20037;-71
2022/08/06 07:33:40;;;;;;;4.43;1.35;;;16.90;99.90;;;;;;5046237;28;20028;-72
2022/08/06 07:36:07;;;;;;;2.50;1.35;;;17.10;99.90;;;;;;5043808;28;20055;-72
2022/08/06 07:38:36;;;;;;;4.45;1.38;;;17.10;99.90;;;;;;5045583;28;20032;-73
2022/08/06 07:41:04;;;;;;;4.45;1.27;;;17.20;99.90;;;;;;5047681;28;20374;-73
2022/08/06 07:43:34;;;;;;;6.20;1.13;;;17.30;99.90;;;;;;5042431;28;20028;-73
2022/08/06 07:46:03;;;;;;;3.85;1.08;;;17.50;99.90;;;;;;5043418;28;20083;-73
2022/08/06 07:48:38;;;;;;;3.78;0.70;;;17.60;99.90;;;;;;5046558;28;20096;-73
2022/08/06 07:51:05;;;;;;;6.15;0.90;;;17.80;99.90;;;;;;5042211;28;20072;-73
2022/08/06 07:53:36;;;;;;;3.28;0.93;;;17.90;99.90;;;;;;5044448;28;20032;-74
2022/08/06 07:56:07;;;;;;;3.97;1.10;;;18.00;99.90;;;;;;5045703;28;20029;-73
2022/08/06 07:58:34;;;;;;;1.83;0.77;;;18.10;99.90;;;;;;5038479;28;20470;-71
2022/08/06 08:01:01;;;;;;;4.40;0.93;;;18.30;99.90;;;;;;5041916;28;20476;-72
2022/08/06 08:06:17;;;;;;;2.55;0.93;;;18.60;99.90;;;;;;5044524;28;20055;-72
2022/08/06 08:08:52;;;;;;;6.60;1.00;;;18.80;99.90;;;;;;5042084;28;20036;-73
2022/08/06 08:11:18;;;;;;;2.30;0.75;;;18.80;99.90;;;;;;5045048;28;20494;-71
2022/08/06 08:13:44;;;;;;;3.13;1.10;;;18.90;99.90;;;;;;5037782;28;20025;-72
2022/08/06 08:16:15;;;;;;;3.30;0.68;;;19.00;99.90;;;;;;5043840;28;20033;-72
2022/08/06 08:18:41;;;;;;;1.92;0.70;;;19.10;99.90;;;;;;5042533;28;20397;-72
2022/08/06 08:21:09;;;;;;;4.88;1.30;;;19.30;99.90;;;;;;5043489;28;20513;-72
2022/08/06 08:23:36;;;;;;;4.00;1.02;;;19.40;99.90;;;;;;5041577;28;20067;-72
2022/08/06 08:26:03;;;;;;;1.40;0.60;;;19.50;99.90;;;;;;5043007;28;20025;-71
2022/08/06 08:28:30;;;;;;;4.00;0.82;;;19.50;99.90;;;;;;5045501;28;20016;-72
2022/08/06 08:30:58;;;;;;;3.25;1.05;;;19.40;99.90;;;;;;5044958;28;20027;-72
2022/08/06 08:33:25;;;;;;;3.30;0.70;;;19.30;99.90;;;;;;5044641;28;20017;-72
2022/08/06 08:35:51;;;;;;;7.00;0.75;;;19.30;99.90;;;;;;5034388;28;20124;-72
2022/08/06 08:38:17;;;;;;;2.22;0.90;;;19.30;99.90;;;;;;5039917;28;20021;-72
2022/08/06 08:40:44;;;;;;;4.13;0.80;;;19.40;99.90;;;;;;5038865;28;20094;-72
2022/08/06 08:43:13;;;;;;;3.08;0.80;;;19.70;99.90;;;;;;5038260;28;20025;-72
2022/08/06 08:45:42;;;;;;;2.55;0.60;;;19.90;99.90;;;;;;5042122;28;20038;-73
2022/08/06 08:48:12;;;;;;;1.17;0.60;;;20.00;99.90;;;;;;5043496;28;20029;-72
2022/08/06 08:50:42;;;;;;;3.30;0.65;;;20.10;99.90;;;;;;5042900;28;20032;-72
2022/08/06 08:53:13;;;;;;;1.27;0.55;;;20.20;99.90;;;;;;5044055;28;20029;-73
2022/08/06 08:55:40;;;;;;;2.13;0.60;;;20.10;99.90;;;;;;5041274;28;20029;-72
2022/08/06 08:58:06;;;;;;;1.45;0.60;;;20.30;99.90;;;;;;5039518;28;20112;-72
2022/08/06 09:00:33;;;;;;;2.55;0.70;;;20.50;99.90;;;;;;5041804;28;20040;-72
2022/08/06 09:02:59;;;;;;;3.58;0.85;;;20.50;99.90;;;;;;5041922;28;20025;-72
2022/08/06 09:05:25;;;;;;;3.72;0.93;;;20.50;99.90;;;;;;5044834;28;20458;-72
2022/08/06 09:07:52;;;;;;;4.07;0.93;;;20.70;99.90;;;;;;5042123;28;20111;-72
2022/08/06 09:10:17;;;;;;;1.00;0.50;;;20.80;99.90;;;;;;5045109;28;20433;-72
2022/08/06 09:12:43;;;;;;;4.03;1.02;;;20.70;99.90;;;;;;5039240;28;20059;-72
2022/08/06 09:15:09;;;;;;;2.75;0.85;;;20.70;99.90;;;;;;5042177;28;20390;-72
2022/08/06 09:17:36;;;;;;;5.85;0.80;;;20.70;99.90;;;;;;5043959;28;20036;-72
2022/08/06 09:20:03;;;;;;;1.60;0.63;;;20.70;99.90;;;;;;5043732;28;20583;-72
2022/08/06 09:22:29;;;;;;;3.20;0.68;;;20.90;99.90;;;;;;5039267;28;20040;-72
2022/08/06 09:24:54;;;;;;;3.10;0.70;;;21.00;99.90;;;;;;5041924;28;20016;-71
2022/08/06 09:27:20;;;;;;;1.95;0.50;;;21.20;99.90;;;;;;5043581;28;20029;-72
2022/08/06 09:29:57;;;;;;;2.75;0.60;;;21.10;99.90;;;;;;5039484;28;20467;-72
2022/08/06 09:41:03;;;;;;;2.65;0.60;;;21.40;98.80;;;;;;5157987;22;20536;-78
2022/08/06 09:43:29;;;;;;;1.73;0.52;;;21.50;99.90;;;;;;5070952;28;20123;-74
2022/08/06 09:45:54;;;;;;;2.80;0.60;;;21.70;97.80;;;;;;5090043;28;20559;-74
2022/08/06 09:48:20;;;;;;;5.85;0.52;;;21.70;96.80;;;;;;5081638;28;20028;-73
2022/08/06 09:50:46;;;;;;;1.92;0.40;;;21.70;98.10;;;;;;5085805;28;20020;-77
2022/08/06 09:53:14;;;;;;;2.67;0.50;;;21.90;95.70;;;;;;5086978;28;20032;-73
2022/08/06 09:55:39;;;;;;;3.03;0.60;;;22.10;96.80;;;;;;5084139;28;20016;-74
2022/08/06 09:58:06;;;;;;;5.47;0.63;;;22.50;96.80;;;;;;5084496;28;20120;-75
2022/08/06 10:00:33;;;;;;;3.05;0.55;;;22.50;96.50;;;;;;5089285;28;20058;-75
2022/08/06 10:03:04;;;;;;;2.10;0.55;;;22.50;97.30;;;;;;5095178;28;20050;-71
2022/08/06 10:05:31;;;;;;;2.95;0.70;;;22.80;97.90;;;;;;5085936;28;20039;-74
2022/08/06 10:08:10;;;;;;;1.05;0.52;;;22.70;96.80;;;;;;5093774;28;20070;-73
2022/08/06 10:10:48;;;;;;;1.83;0.65;;;22.90;97.50;;;;;;5088963;28;20040;-72
2022/08/06 10:13:26;;;;;;;1.88;0.70;;;23.20;99.10;;;;;;5094263;28;20038;-73
2022/08/06 10:15:54;;;;;;;1.27;0.73;;;23.30;96.80;;;;;;5092952;28;20085;-74
2022/08/06 10:18:31;;;;;;;1.48;0.60;;;23.40;96.70;;;;;;5092825;28;20020;-74
2022/08/06 10:21:03;;;;;;;2.05;0.60;;;23.40;96.50;;;;;;5085651;28;20028;-74
2022/08/06 10:23:32;;;;;;;1.92;0.68;;;23.30;97.60;;;;;;5085644;28;20506;-74
2022/08/06 10:25:58;;;;;;;1.73;0.57;;;23.40;96.40;;;;;;5092240;28;20034;-73
2022/08/06 10:28:27;;;;;;;0.77;0.30;;;23.40;95.20;;;;;;5094289;28;20028;-74
2022/08/06 10:30:54;;;;;;;3.67;0.40;;;23.40;95.50;;;;;;5080451;28;20020;-74
2022/08/06 10:33:22;;;;;;;0.35;0.20;;;23.60;94.30;;;;;;5089846;28;20020;-74
2022/08/06 10:35:51;;;;;;;1.33;0.45;;;23.40;94.70;;;;;;5092967;28;20024;-73
2022/08/06 10:38:22;;;;;;;1.83;0.60;;;23.10;94.90;;;;;;5072411;28;20031;-73
2022/08/06 10:40:51;;;;;;;1.50;0.60;;;23.00;95.20;;;;;;5085803;28;20027;-76
2022/08/06 10:43:18;;;;;;;1.83;0.40;;;22.90;95.70;;;;;;5079532;28;20040;-73
2022/08/06 10:45:44;;;;;;;1.85;0.50;;;22.70;95.40;;;;;;5090381;28;20418;-73
2022/08/06 10:48:11;;;;;;;2.20;0.60;;;22.40;96.20;;;;;;5084507;28;20020;-73
2022/08/06 10:50:39;;;;;;;2.47;0.63;;;22.40;98.10;;;;;;5083846;28;20053;-73
2022/08/06 10:53:06;;;;;;;1.33;0.50;;;22.60;97.50;;;;;;5082372;28;20016;-73
2022/08/06 10:55:32;;;;;;;1.48;0.80;;;23.00;97.10;;;;;;5080954;28;20130;-73
2022/08/06 10:57:58;;;;;;;3.58;0.70;;;22.80;96.20;;;;;;5075510;28;20028;-77
2022/08/06 11:00:25;;;;;;;1.40;0.82;;;22.70;94.90;;;;;;5075398;28;20736;-74
2022/08/06 11:03:00;;;;;;;1.17;0.70;;;23.00;95.20;;;;;;5082937;28;20145;-77
2022/08/06 11:05:38;;;;;;;2.33;0.75;;;23.20;94.90;;;;;;5078798;28;20032;-78
2022/08/06 11:08:06;;;;;;;4.00;0.80;;;23.30;94.80;;;;;;5078348;28;20026;-77
2022/08/06 11:10:51;;;;;;;3.42;0.80;;;23.60;94.40;;;;;;5085640;28;20057;-77
2022/08/06 11:13:26;;;;;;;1.35;0.60;;;23.70;94.20;;;;;;5067512;28;20409;-78
2022/08/06 11:15:52;;;;;;;2.97;1.05;;;23.40;94.50;;;;;;5078279;28;20564;-78
2022/08/06 11:18:18;;;;;;;2.65;0.68;;;23.30;94.80;;;;;;5073247;28;20043;-79
2022/08/06 11:20:45;;;;;;;4.97;0.70;;;23.10;94.00;;;;;;5065167;28;20020;-78
2022/08/06 11:23:11;;;;;;;2.35;0.70;;;23.20;94.60;;;;;;5063873;28;20032;-77
2022/08/06 11:25:43;;;;;;;1.90;0.43;;;23.30;93.10;;;;;;5082553;28;20094;-79
2022/08/06 11:28:14;;;;;;;1.65;0.32;;;23.50;93.70;;;;;;5066721;28;20107;-77
2022/08/06 11:30:44;;;;;;;0.85;0.30;;;23.50;93.30;;;;;;5082631;28;20474;-78
2022/08/06 11:33:12;;;;;;;1.80;0.47;;;23.90;91.10;;;;;;5083034;28;20028;-79
2022/08/06 11:35:40;;;;;;;0.88;0.30;;;24.20;91.00;;;;;;5065388;28;20028;-84
2022/08/06 11:38:10;;;;;;;1.02;0.43;;;24.20;92.00;;;;;;5077129;28;20511;-75
2022/08/06 11:40:54;;;;;;;0.82;0.40;;;24.10;90.70;;;;;;5064728;28;20008;-75
2022/08/06 11:43:47;;;;;;;2.05;0.60;;;23.90;91.10;;;;;;5082141;28;20037;-73
2022/08/06 11:46:26;;;;;;;;;;;23.60;91.80;;;;;;5069906;28;20043;-74
2022/08/06 11:49:04;;;;;;;1.25;0.30;;;23.30;93.30;;;;;;5067194;28;19997;-74
2022/08/06 11:51:49;;;;;;;2.13;0.60;;;23.40;93.80;;;;;;5063879;28;20027;-74
2022/08/06 11:54:16;;;;;;;1.88;0.68;;;23.80;93.40;;;;;;5063636;28;20033;-74
2022/08/06 11:57:08;;;;;;;3.10;0.60;;;24.10;92.20;;;;;;5078645;28;20475;-74
2022/08/06 11:59:35;;;;;;;1.80;0.60;;;24.10;93.20;;;;;;5058866;28;20089;-74
2022/08/06 12:02:08;;;;;;;2.65;0.70;;;24.20;91.60;;;;;;5084211;28;20066;-75
2022/08/06 12:04:39;;;;;;;3.42;0.52;;;24.40;90.90;;;;;;5082041;28;20028;-75
2022/08/06 12:07:22;;;;;;;2.80;0.60;;;24.10;91.80;;;;;;5064161;28;20044;-75
2022/08/06 12:10:07;;;;;;;2.55;0.45;;;23.80;91.00;;;;;;5080948;28;20028;-74
2022/08/06 12:12:34;;;;;;;3.47;0.80;;;23.50;91.70;;;;;;5081443;28;20041;-74
2022/08/06 12:15:00;;;;;;;3.45;0.75;;;23.40;92.70;;;;;;5076705;28;20047;-75
2022/08/06 12:17:28;;;;;;;1.88;0.55;;;23.60;95.50;;;;;;5079012;28;20033;-75
2022/08/06 12:19:55;;;;;;;1.98;0.68;;;23.60;94.50;;;;;;5084558;28;20023;-74
2022/08/06 12:22:22;;;;;;;2.17;0.52;;;24.10;92.90;;;;;;5078364;28;20101;-74
2022/08/06 12:24:58;;;;;;;3.22;0.70;;;24.40;90.10;;;;;;5080911;28;20031;-74
2022/08/06 12:27:31;;;;;;;1.45;0.60;;;24.50;91.00;;;;;;5079270;28;20040;-73
2022/08/06 12:29:58;;;;;;;2.03;0.60;;;24.90;91.40;;;;;;5064586;28;20635;-73
2022/08/06 12:32:26;;;;;;;2.97;0.70;;;24.80;91.40;;;;;;5087642;28;20064;-74
2022/08/06 12:34:53;;;;;;;1.38;0.40;;;24.50;90.80;;;;;;5083743;28;20028;-74
2022/08/06 12:37:19;;;;;;;3.50;0.70;;;24.50;91.90;;;;;;5080542;28;20028;-74
2022/08/06 12:42:33;;;;;;;1.48;0.50;;;24.00;92.00;;;;;;5079384;28;20058;-73
2022/08/06 12:44:58;;;;;;;2.50;0.70;;;24.20;92.70;;;;;;5077419;28;20062;-73
2022/08/06 12:47:25;;;;;;;1.85;0.40;;;24.50;93.60;;;;;;5086480;28;20454;-73
2022/08/06 12:49:52;;;;;;;1.67;0.52;;;25.00;93.70;;;;;;5080538;28;20027;-72
2022/08/06 12:52:20;;;;;;;5.18;0.60;;;25.30;91.40;;;;;;5081245;28;20499;-73
2022/08/06 12:54:47;;;;;;;0.43;0.32;;;25.10;89.70;;;;;;5082283;28;20028;-73
2022/08/06 12:57:23;;;;;;;1.80;0.70;;;24.80;87.00;;;;;;5084097;28;20078;-73
2022/08/06 12:59:50;;;;;;;1.58;0.40;;;24.40;86.70;;;;;;5083371;28;20483;-72
2022/08/06 13:02:19;;;;;;;1.10;0.47;;;24.00;90.50;;;;;;5068699;28;20036;-73
2022/08/06 13:04:52;;;;;;;2.42;0.50;;;23.90;92.00;;;;;;5085063;28;20463;-73
2022/08/06 13:07:19;;;;;;;1.42;0.40;;;23.70;92.60;;;;;;5082977;28;20058;-74
2022/08/06 13:09:46;;;;;;;0.77;0.50;;;24.00;92.40;;;;;;5075928;28;20021;-73
2022/08/06 13:12:18;;;;;;;1.40;0.30;;;24.40;92.40;;;;;;5079711;28;20042;-73
2022/08/06 13:14:59;;;;;;;1.87;0.47;;;24.50;90.70;;;;;;5073600;28;20107;-73